createdAt,value
2022-08-20T00:02:20.049Z,100239.25
2022-08-20T00:04:48.925Z,100303.28
2022-08-20T00:07:17.800Z,100300.25
2022-08-20T00:09:46.689Z,100308.56
2022-08-20T00:12:17.733Z,100313.22
2022-08-20T00:14:46.671Z,100319.31
2022-08-20T00:17:16.893Z,100326.09
2022-08-20T00:19:46.519Z,100318.50
2022-08-20T00:22:15.283Z,100317.28
2022-08-20T00:24:44.239Z,100322.28
2022-08-20T00:27:13.125Z,100325.31
2022-08-20T00:29:42.961Z,100317.94
2022-08-20T00:32:11.699Z,100318.72
2022-08-20T00:34:42.557Z,100322.28
2022-08-20T00:37:11.392Z,100329.53
2022-08-20T00:39:40.481Z,100326.00
2022-08-20T00:42:09.801Z,100328.22
2022-08-20T00:44:44.912Z,100332.63
2022-08-20T00:47:13.775Z,100336.34
2022-08-20T00:49:45.641Z,100333.81
2022-08-20T00:52:18.748Z,100242.09
2022-08-20T00:54:51.097Z,100343.94
2022-08-20T00:57:24.046Z,100320.16
2022-08-20T00:59:53.661Z,100336.16
2022-08-20T01:02:25.467Z,100308.69
2022-08-20T01:04:56.848Z,100327.22
2022-08-20T01:07:32.580Z,100321.81
2022-08-20T01:10:02.086Z,100324.88
2022-08-20T01:12:32.486Z,100325.69
2022-08-20T01:15:03.908Z,100328.25
2022-08-20T01:17:37.027Z,100331.63
2022-08-20T01:20:12.983Z,100322.19
2022-08-20T01:23:03.150Z,100322.53
2022-08-20T01:25:42.331Z,100315.09
2022-08-20T01:28:12.579Z,100316.78
2022-08-20T01:30:41.917Z,100312.75
2022-08-20T01:33:11.376Z,100300.56
2022-08-20T01:35:42.725Z,100314.22
2022-08-20T01:38:12.852Z,100302.28
2022-08-20T01:41:19.273Z,100313.06
2022-08-20T01:43:58.569Z,100306.97
2022-08-20T01:46:31.030Z,100300.19
2022-08-20T01:49:01.490Z,100307.91
2022-08-20T01:51:31.704Z,100301.25
2022-08-20T01:54:00.838Z,100307.28
2022-08-20T01:56:32.991Z,100301.66
2022-08-20T01:59:05.426Z,100299.00
2022-08-20T02:01:46.368Z,100302.84
2022-08-20T02:04:18.213Z,100307.13
2022-08-20T02:06:56.476Z,100300.66
2022-08-20T02:09:27.764Z,100293.72
2022-08-20T02:11:58.921Z,100306.69
2022-08-20T02:14:28.502Z,100275.38
2022-08-20T02:16:58.680Z,100308.13
2022-08-20T02:19:32.844Z,100300.13
2022-08-20T02:22:06.477Z,100306.06
2022-08-20T02:24:35.566Z,100293.56
2022-08-20T02:27:05.893Z,100314.31
2022-08-20T02:29:35.032Z,100302.97
2022-08-20T02:32:24.984Z,100307.75
2022-08-20T02:34:52.663Z,100304.44
2022-08-20T02:37:21.508Z,100295.56
2022-08-20T02:39:50.250Z,100301.44
2022-08-20T02:42:20.702Z,100302.94
2022-08-20T02:44:49.478Z,100305.66
2022-08-20T02:47:18.282Z,100313.47
2022-08-20T02:49:47.038Z,100308.69
2022-08-20T02:52:15.802Z,100293.59
2022-08-20T02:54:44.746Z,100296.06
2022-08-20T02:57:14.895Z,100294.69
2022-08-20T02:59:45.656Z,100295.38
2022-08-20T03:02:14.910Z,100304.63
2022-08-20T03:04:43.973Z,100294.88
2022-08-20T03:07:13.194Z,100290.44
2022-08-20T03:09:42.249Z,100299.09
2022-08-20T03:12:11.083Z,100289.47
2022-08-20T03:14:39.971Z,100304.84
2022-08-20T03:17:10.190Z,100287.25
2022-08-20T03:19:38.948Z,100310.63
2022-08-20T03:22:07.630Z,100312.44
2022-08-20T03:24:36.453Z,100316.34
2022-08-20T03:27:05.673Z,100317.34
2022-08-20T03:29:36.034Z,100307.13
2022-08-20T03:32:07.779Z,100313.84
2022-08-20T03:34:38.013Z,100311.00
2022-08-20T03:37:06.884Z,100317.22
2022-08-20T03:39:35.685Z,100310.44
2022-08-20T03:42:04.881Z,100312.19
2022-08-20T03:44:34.249Z,100310.81
2022-08-20T03:47:07.633Z,100234.25
2022-08-20T03:49:37.735Z,100303.91
2022-08-20T03:52:08.235Z,100304.38
2022-08-20T03:54:37.074Z,100305.72
2022-08-20T03:57:12.461Z,100300.81
2022-08-20T03:59:42.573Z,100306.88
2022-08-20T04:02:11.691Z,100310.13
2022-08-20T04:04:43.693Z,100293.41
2022-08-20T04:07:14.243Z,100309.44
2022-08-20T04:09:43.736Z,100293.97
2022-08-20T04:12:13.742Z,100307.75
2022-08-20T04:14:42.369Z,100303.41
2022-08-20T04:17:14.230Z,100300.66
2022-08-20T04:19:46.063Z,100300.34
2022-08-20T04:22:15.533Z,100319.03
2022-08-20T04:24:45.527Z,100318.53
2022-08-20T04:27:15.005Z,100309.81
2022-08-20T04:29:44.784Z,100278.00
2022-08-20T04:32:14.090Z,100314.06
2022-08-20T04:34:48.096Z,100317.53
2022-08-20T04:37:21.199Z,100312.44
2022-08-20T04:40:10.216Z,100314.13
2022-08-20T04:42:40.120Z,100314.13
2022-08-20T04:45:12.501Z,100306.34
2022-08-20T04:47:41.783Z,100308.69
2022-08-20T04:50:13.848Z,100316.63
2022-08-20T04:52:42.725Z,100297.41
2022-08-20T04:55:11.746Z,100283.34
2022-08-20T04:57:41.220Z,100305.53
2022-08-20T05:00:14.298Z,100299.53
2022-08-20T05:02:43.623Z,100270.22
2022-08-20T05:05:14.840Z,100236.03
2022-08-20T05:07:46.928Z,100293.94
2022-08-20T05:10:18.679Z,100284.00
2022-08-20T05:12:55.634Z,100272.47
2022-08-20T05:15:29.451Z,100291.25
2022-08-20T05:18:02.618Z,100292.50
2022-08-20T05:20:34.948Z,100224.22
2022-08-20T05:23:04.351Z,100285.03
2022-08-20T05:25:33.368Z,100274.59
2022-08-20T05:28:09.435Z,100274.81
2022-08-20T05:30:38.999Z,100271.22
2022-08-20T05:33:10.463Z,100270.84
2022-08-20T05:35:42.136Z,100263.34
2022-08-20T05:38:14.973Z,100247.69
2022-08-20T05:40:44.161Z,100263.84
2022-08-20T05:43:14.038Z,100263.44
2022-08-20T05:45:44.127Z,100205.53
2022-08-20T05:48:16.154Z,100242.31
2022-08-20T05:50:52.258Z,100193.41
2022-08-20T05:53:22.274Z,100262.72
2022-08-20T05:55:52.287Z,100249.81
2022-08-20T05:58:25.832Z,100266.34
2022-08-20T06:00:56.865Z,100262.41
2022-08-20T06:03:43.889Z,100255.75
2022-08-20T06:06:18.254Z,100261.13
2022-08-20T06:09:02.835Z,100265.84
2022-08-20T06:11:36.442Z,100242.41
2022-08-20T06:14:06.682Z,100273.91
2022-08-20T06:16:37.181Z,100281.06
2022-08-20T06:19:11.273Z,100285.28
2022-08-20T06:21:42.311Z,100282.63
2022-08-20T06:24:11.420Z,100280.97
2022-08-20T06:26:40.841Z,100282.34
2022-08-20T06:29:09.747Z,100279.19
2022-08-20T06:31:40.039Z,100281.09
2022-08-20T06:34:08.873Z,100218.16
2022-08-20T06:36:38.850Z,100285.69
2022-08-20T06:39:09.035Z,100276.25
2022-08-20T06:41:37.711Z,100289.06
2022-08-20T06:44:07.915Z,100285.72
2022-08-20T06:46:37.441Z,100223.28
2022-08-20T06:49:09.262Z,100289.03
2022-08-20T06:51:38.595Z,100283.59
2022-08-20T06:54:14.173Z,100226.63
2022-08-20T06:56:44.210Z,100293.06
2022-08-20T06:59:13.037Z,100296.16
2022-08-20T07:01:44.009Z,100286.09
2022-08-20T07:04:13.007Z,100287.00
2022-08-20T07:06:41.827Z,100270.34
2022-08-20T07:09:12.140Z,100285.91
2022-08-20T07:11:41.465Z,100281.41
2022-08-20T07:14:10.181Z,100220.47
2022-08-20T07:16:39.068Z,100280.28
2022-08-20T07:19:08.464Z,100277.75
2022-08-20T07:21:38.054Z,100289.84
2022-08-20T07:24:07.527Z,100292.78
2022-08-20T07:26:37.637Z,100283.94
2022-08-20T07:29:06.391Z,100290.25
2022-08-20T07:31:52.531Z,100289.41
2022-08-20T07:34:21.908Z,100290.47
2022-08-20T07:36:50.957Z,100273.06
2022-08-20T07:39:20.427Z,100238.44
2022-08-20T07:42:03.239Z,100289.38
2022-08-20T07:44:32.164Z,100231.41
2022-08-20T07:47:01.027Z,100271.84
2022-08-20T07:49:30.076Z,100276.56
2022-08-20T07:51:59.338Z,100276.19
2022-08-20T07:54:30.545Z,100276.88
2022-08-20T07:57:03.752Z,100283.50
2022-08-20T07:59:32.966Z,100280.28
2022-08-20T08:02:01.900Z,100287.41
2022-08-20T08:04:32.738Z,100266.63
2022-08-20T08:07:03.535Z,100278.81
2022-08-20T08:09:35.270Z,100285.53
2022-08-20T08:12:05.729Z,100276.97
2022-08-20T08:14:36.005Z,100262.53
2022-08-20T08:17:07.354Z,100279.81
2022-08-20T08:19:40.591Z,100277.34
2022-08-20T08:22:12.747Z,100272.75
2022-08-20T08:24:57.117Z,100265.47
2022-08-20T08:27:29.365Z,100273.81
2022-08-20T08:29:58.464Z,100266.25
2022-08-20T08:32:28.297Z,100258.06
2022-08-20T08:34:57.106Z,100261.91
2022-08-20T08:37:30.097Z,100255.84
2022-08-20T08:40:00.435Z,100265.94
2022-08-20T08:42:43.432Z,100252.13
2022-08-20T08:45:16.142Z,100257.25
2022-08-20T08:47:46.036Z,100259.06
2022-08-20T08:50:43.767Z,100260.31
2022-08-20T08:53:20.409Z,100261.88
2022-08-20T08:55:49.806Z,100272.34
2022-08-20T08:58:20.277Z,100255.78
2022-08-20T09:00:57.655Z,100253.28
2022-08-20T09:03:34.447Z,100261.44
2022-08-20T09:06:03.681Z,100250.28
2022-08-20T09:08:37.307Z,100268.97
2022-08-20T09:11:09.110Z,100263.41
2022-08-20T09:13:39.295Z,100269.31
2022-08-20T09:16:10.743Z,100257.44
2022-08-20T09:18:40.615Z,100255.78
2022-08-20T09:21:10.818Z,100251.41
2022-08-20T09:23:39.878Z,100257.00
2022-08-20T09:26:08.904Z,100265.47
2022-08-20T09:28:39.291Z,100261.75
2022-08-20T09:31:08.142Z,100267.09
2022-08-20T09:33:37.016Z,100242.44
2022-08-20T09:36:29.254Z,100263.69
2022-08-20T09:38:54.841Z,100255.78
2022-08-20T09:41:23.730Z,100277.53
2022-08-20T09:43:54.597Z,100265.78
2022-08-20T09:46:27.185Z,100262.81
2022-08-20T09:48:56.699Z,100273.13
2022-08-20T09:51:25.805Z,100271.47
2022-08-20T09:53:54.618Z,100261.66
2022-08-20T09:56:25.602Z,100257.66
2022-08-20T09:58:59.923Z,100258.91
2022-08-20T10:01:33.302Z,100268.19
2022-08-20T10:04:02.198Z,100228.09
2022-08-20T10:06:35.798Z,100255.72
2022-08-20T10:09:06.623Z,100229.69
2022-08-20T10:11:35.297Z,100263.72
2022-08-20T10:14:05.672Z,100256.50
2022-08-20T10:16:34.385Z,100256.03
2022-08-20T10:19:03.927Z,100238.56
2022-08-20T10:21:38.445Z,100264.78
2022-08-20T10:24:07.893Z,100263.69
2022-08-20T10:26:39.073Z,100266.59
2022-08-20T10:29:09.259Z,100214.94
2022-08-20T10:31:38.039Z,100268.13
2022-08-20T10:34:06.938Z,100268.19
2022-08-20T10:36:35.757Z,100271.03
2022-08-20T10:39:05.259Z,100269.84
2022-08-20T10:41:38.346Z,100268.38
2022-08-20T10:44:09.636Z,100263.63
2022-08-20T10:46:38.519Z,100269.44
2022-08-20T10:49:07.254Z,100276.25
2022-08-20T10:51:36.052Z,100274.19
2022-08-20T10:54:05.424Z,100273.53
2022-08-20T10:56:41.705Z,100265.97
2022-08-20T10:59:11.851Z,100276.97
2022-08-20T11:01:40.924Z,100266.44
2022-08-20T11:04:09.797Z,100261.31
2022-08-20T11:06:38.453Z,100259.78
2022-08-20T11:09:07.342Z,100261.34
2022-08-20T11:11:38.832Z,100264.84
2022-08-20T11:14:07.655Z,100258.94
2022-08-20T11:16:37.805Z,100261.78
2022-08-20T11:19:06.682Z,100183.59
2022-08-20T11:21:35.698Z,100258.84
2022-08-20T11:24:05.177Z,100205.97
2022-08-20T11:26:34.064Z,100260.50
2022-08-20T11:29:02.806Z,100252.50
2022-08-20T11:31:31.488Z,100235.47
2022-08-20T11:34:01.686Z,100243.22
2022-08-20T11:36:30.450Z,100245.53
2022-08-20T11:38:59.248Z,100236.34
2022-08-20T11:41:28.044Z,100239.78
2022-08-20T11:44:19.922Z,100244.34
2022-08-20T11:46:45.679Z,100238.28
2022-08-20T11:49:15.744Z,100241.69
2022-08-20T11:51:49.449Z,100237.09
2022-08-20T11:54:18.950Z,100233.66
2022-08-20T11:56:48.456Z,100239.41
2022-08-20T11:59:18.532Z,100230.03
2022-08-20T12:02:03.339Z,100232.59
2022-08-20T12:04:35.354Z,100179.28
2022-08-20T12:07:11.887Z,100236.59
2022-08-20T12:09:41.933Z,100234.44
2022-08-20T12:12:22.405Z,100231.00
2022-08-20T12:14:52.070Z,100222.25
2022-08-20T12:17:24.066Z,100221.28
2022-08-20T12:19:56.754Z,100221.19
2022-08-20T12:22:26.319Z,100224.75
2022-08-20T12:24:55.633Z,100162.09
2022-08-20T12:27:27.442Z,100229.09
2022-08-20T12:29:58.151Z,100219.41
2022-08-20T12:32:28.732Z,100217.44
2022-08-20T12:34:59.445Z,100232.16
2022-08-20T12:37:31.242Z,100233.66
2022-08-20T12:40:02.169Z,100233.34
2022-08-20T12:42:31.530Z,100240.31
2022-08-20T12:45:00.902Z,100231.31
2022-08-20T12:47:33.071Z,100237.03
2022-08-20T12:50:05.373Z,100230.06
2022-08-20T12:52:35.134Z,100236.47
2022-08-20T12:55:05.482Z,100217.91
2022-08-20T12:57:36.571Z,100240.13
2022-08-20T13:00:10.603Z,100242.88
2022-08-20T13:02:41.306Z,100233.25
2022-08-20T13:05:14.148Z,100236.75
2022-08-20T13:07:43.724Z,100234.94
2022-08-20T13:10:16.573Z,100228.88
2022-08-20T13:12:45.322Z,100188.59
2022-08-20T13:15:14.855Z,100235.09
2022-08-20T13:17:43.820Z,100230.63
2022-08-20T13:20:16.007Z,100233.16
2022-08-20T13:22:45.149Z,100227.16
2022-08-20T13:25:14.673Z,100224.31
2022-08-20T13:27:45.132Z,100212.94
2022-08-20T13:30:18.411Z,100228.56
2022-08-20T13:32:47.751Z,100225.28
2022-08-20T13:35:19.459Z,100224.09
2022-08-20T13:37:49.982Z,100226.44
2022-08-20T13:40:19.561Z,100230.44
2022-08-20T13:42:48.381Z,100222.19
2022-08-20T13:45:17.225Z,100230.41
2022-08-20T13:47:46.117Z,100226.34
2022-08-20T13:50:19.823Z,100213.84
2022-08-20T13:52:49.160Z,100225.75
2022-08-20T13:55:20.615Z,100220.13
2022-08-20T13:57:50.368Z,100209.81
2022-08-20T14:00:26.365Z,100205.47
2022-08-20T14:03:01.297Z,100204.88
2022-08-20T14:05:32.483Z,100221.50
2022-08-20T14:08:08.495Z,100186.94
2022-08-20T14:10:37.704Z,100223.31
2022-08-20T14:13:08.899Z,100227.03
2022-08-20T14:15:39.614Z,100222.63
2022-08-20T14:18:08.578Z,100221.53
2022-08-20T14:20:38.949Z,100190.94
2022-08-20T14:23:07.791Z,100216.09
2022-08-20T14:25:36.897Z,100225.72
2022-08-20T14:28:13.093Z,100221.56
2022-08-20T14:30:42.646Z,100225.59
2022-08-20T14:33:11.589Z,100220.88
2022-08-20T14:35:42.140Z,100219.88
2022-08-20T14:38:11.184Z,100216.16
2022-08-20T14:40:40.157Z,100221.13
2022-08-20T14:43:09.156Z,100205.59
2022-08-20T14:45:38.380Z,100225.75
2022-08-20T14:48:08.836Z,100223.09
2022-08-20T14:50:38.488Z,100216.16
2022-08-20T14:53:09.016Z,100211.69
2022-08-20T14:55:38.765Z,100213.56
2022-08-20T14:58:08.778Z,100210.97
2022-08-20T15:00:37.944Z,100211.81
2022-08-20T15:03:06.869Z,100208.47
2022-08-20T15:05:39.540Z,100218.22
2022-08-20T15:08:11.002Z,100215.63
2022-08-20T15:10:40.934Z,100195.75
2022-08-20T15:13:09.973Z,100207.50
2022-08-20T15:15:39.564Z,100189.94
2022-08-20T15:18:09.088Z,100195.69
2022-08-20T15:20:38.511Z,100194.78
2022-08-20T15:23:07.851Z,100210.38
2022-08-20T15:25:38.509Z,100207.53
2022-08-20T15:28:10.402Z,100207.38
2022-08-20T15:30:42.668Z,100209.41
2022-08-20T15:33:12.235Z,100215.56
2022-08-20T15:35:41.183Z,100200.75
2022-08-20T15:38:09.878Z,100213.16
2022-08-20T15:40:40.351Z,100211.47
2022-08-20T15:43:09.235Z,100206.84
2022-08-20T15:45:38.121Z,100216.00
2022-08-20T15:48:14.323Z,100212.06
2022-08-20T15:51:01.831Z,100203.78
2022-08-20T15:53:35.803Z,100214.69
2022-08-20T15:56:25.239Z,100215.22
2022-08-20T15:59:01.933Z,100103.63
2022-08-20T16:01:38.514Z,100222.34
2022-08-20T16:04:24.803Z,100219.00
2022-08-20T16:06:58.203Z,100222.94
2022-08-20T16:09:43.628Z,100189.69
2022-08-20T16:12:21.344Z,100224.94
2022-08-20T16:15:03.236Z,100231.66
2022-08-20T16:17:36.057Z,100235.03
2022-08-20T16:20:11.661Z,100230.38
2022-08-20T16:22:44.426Z,100222.66
2022-08-20T16:25:14.773Z,100210.94
2022-08-20T16:27:52.497Z,100222.25
2022-08-20T16:30:31.428Z,100238.16
2022-08-20T16:33:05.074Z,100232.72
2022-08-20T16:35:37.049Z,100242.75
2022-08-20T16:38:21.091Z,100242.31
2022-08-20T16:40:56.649Z,100237.75
2022-08-20T16:43:33.629Z,100242.75
2022-08-20T16:46:04.975Z,100241.28
2022-08-20T16:48:38.306Z,100217.81
2022-08-20T16:51:13.010Z,100224.94
2022-08-20T16:53:42.027Z,100234.59
2022-08-20T16:56:10.895Z,100247.56
2022-08-20T16:58:45.193Z,100245.69
2022-08-20T17:01:16.255Z,100250.19
2022-08-20T17:03:50.913Z,100243.00
2022-08-20T17:06:28.012Z,100258.09
2022-08-20T17:08:56.975Z,100256.16
2022-08-20T17:11:32.082Z,100246.06
2022-08-20T17:14:12.748Z,100269.56
2022-08-20T17:16:46.801Z,100265.03
2022-08-20T17:19:27.131Z,100266.31
2022-08-20T17:21:56.356Z,100272.06
2022-08-20T17:24:29.348Z,100274.59
2022-08-20T17:27:00.748Z,100251.53
2022-08-20T17:29:32.981Z,100272.47
2022-08-20T17:32:10.862Z,100280.06
2022-08-20T17:34:46.178Z,100274.22
2022-08-20T17:37:23.342Z,100278.38
2022-08-20T17:40:09.906Z,100252.28
2022-08-20T17:42:49.084Z,100286.56
2022-08-20T17:45:25.486Z,100271.56
2022-08-20T17:47:58.603Z,100279.44
2022-08-20T17:50:31.706Z,100286.59
2022-08-20T17:53:07.217Z,100289.13
2022-08-20T17:55:37.860Z,100157.84
2022-08-20T17:58:13.422Z,100289.34
2022-08-20T18:00:45.070Z,100297.13
2022-08-20T18:03:23.423Z,100286.00
2022-08-20T18:05:58.474Z,100296.72
2022-08-20T18:08:36.667Z,100297.97
2022-08-20T18:11:15.137Z,100300.28
2022-08-20T18:14:10.598Z,100286.59
2022-08-20T18:16:55.455Z,100290.75
2022-08-20T18:19:53.062Z,100286.72
2022-08-20T18:22:25.909Z,100292.72
2022-08-20T18:25:02.791Z,100304.97
2022-08-20T18:27:41.300Z,100278.53
2022-08-20T18:30:18.841Z,100286.84
2022-08-20T18:32:52.118Z,100289.63
2022-08-20T18:35:25.226Z,100281.91
2022-08-20T18:37:55.223Z,100276.53
2022-08-20T18:40:33.485Z,100276.25
2022-08-20T18:43:14.004Z,100263.97
2022-08-20T18:45:43.426Z,100273.81
2022-08-20T18:48:22.551Z,100280.28
2022-08-20T18:50:55.233Z,100274.03
2022-08-20T18:53:33.921Z,100265.25
2022-08-20T18:56:06.892Z,100264.34
2022-08-20T18:58:55.029Z,100276.81
2022-08-20T19:01:24.201Z,100278.50
2022-08-20T19:03:58.213Z,100271.84
2022-08-20T19:06:40.754Z,100271.47
2022-08-20T19:09:16.095Z,100272.72
2022-08-20T19:12:05.981Z,100269.78
2022-08-20T19:14:51.068Z,100280.00
2022-08-20T19:17:29.793Z,100251.63
2022-08-20T19:20:09.237Z,100267.66
2022-08-20T19:22:41.166Z,100256.34
2022-08-20T19:25:21.261Z,100266.38
2022-08-20T19:27:50.265Z,100248.59
2022-08-20T19:30:33.348Z,100253.81
2022-08-20T19:33:03.172Z,100247.50
2022-08-20T19:35:34.095Z,100236.00
2022-08-20T19:38:03.486Z,100228.56
2022-08-20T19:40:39.143Z,100238.69
2022-08-20T19:43:16.148Z,100252.47
2022-08-20T19:45:48.399Z,100254.31
2022-08-20T19:48:37.295Z,100250.75
2022-08-20T19:51:15.584Z,100212.75
2022-08-20T19:53:47.814Z,100245.66
2022-08-20T19:56:19.722Z,100243.44
2022-08-20T19:59:01.498Z,100240.13
2022-08-20T20:01:30.760Z,100233.19
2022-08-20T20:04:03.479Z,100196.91
2022-08-20T20:06:38.149Z,100252.03
2022-08-20T20:09:14.727Z,100249.97
2022-08-20T20:11:47.608Z,100235.19
2022-08-20T20:14:18.767Z,100228.44
2022-08-20T20:16:51.223Z,100242.25
2022-08-20T20:19:26.670Z,100243.88
2022-08-20T20:22:20.257Z,100238.31
2022-08-20T20:25:00.006Z,100226.59
2022-08-20T20:27:29.275Z,100233.66
2022-08-20T20:30:02.824Z,100223.00
2022-08-20T20:32:33.948Z,100206.16
2022-08-20T20:35:06.979Z,100234.63
2022-08-20T20:37:50.000Z,100223.41
2022-08-20T20:40:26.618Z,100220.38
2022-08-20T20:43:02.733Z,100213.53
2022-08-20T20:45:35.778Z,100218.03
2022-08-20T20:48:18.342Z,100217.16
2022-08-20T20:50:49.246Z,100213.88
2022-08-20T20:53:50.890Z,100218.97
2022-08-20T20:56:31.648Z,100217.00
2022-08-20T20:59:05.515Z,100217.50
2022-08-20T21:01:49.364Z,100208.31
2022-08-20T21:04:20.328Z,100188.56
2022-08-20T21:06:49.578Z,100202.50
2022-08-20T21:09:21.276Z,100175.31
2022-08-20T21:11:50.853Z,100198.31
2022-08-20T21:14:19.986Z,100184.81
2022-08-20T21:16:49.161Z,100200.06
2022-08-20T21:19:19.055Z,100196.94
2022-08-20T21:21:48.059Z,100192.69
2022-08-20T21:24:18.299Z,100189.28
2022-08-20T21:26:49.567Z,100181.97
2022-08-20T21:29:26.432Z,100186.97
2022-08-20T21:31:59.158Z,100184.56
2022-08-20T21:34:28.193Z,100170.94
2022-08-20T21:36:58.016Z,100162.47
2022-08-20T21:39:28.234Z,100176.69
2022-08-20T21:42:02.671Z,100155.97
2022-08-20T21:44:33.511Z,100182.88
2022-08-20T21:47:02.936Z,100198.75
2022-08-20T21:49:33.059Z,100182.38
2022-08-20T21:52:02.012Z,100180.63
2022-08-20T21:54:31.032Z,100178.16
2022-08-20T21:57:06.081Z,100148.97
2022-08-20T21:59:37.821Z,100158.28
2022-08-20T22:02:08.792Z,100163.47
2022-08-20T22:04:38.248Z,100120.25
2022-08-20T22:07:07.142Z,100150.53
2022-08-20T22:09:36.325Z,100159.31
2022-08-20T22:12:08.377Z,100156.44
2022-08-20T22:14:37.075Z,100139.16
2022-08-20T22:17:06.175Z,100158.28
2022-08-20T22:19:35.172Z,100151.16
2022-08-20T22:22:04.804Z,100147.88
2022-08-20T22:24:33.775Z,100158.91
2022-08-20T22:27:03.021Z,100021.22
2022-08-20T22:29:33.545Z,100164.06
2022-08-20T22:32:02.423Z,100146.88
2022-08-20T22:34:33.835Z,100155.66
2022-08-20T22:37:03.967Z,100152.75
2022-08-20T22:39:33.232Z,100156.56
2022-08-20T22:42:02.003Z,100159.13
2022-08-20T22:44:30.678Z,100125.81
2022-08-20T22:47:05.739Z,100143.78
2022-08-20T22:49:36.909Z,100150.91
2022-08-20T22:52:06.182Z,100146.63
2022-08-20T22:54:37.014Z,100145.84
2022-08-20T22:57:05.992Z,100143.91
2022-08-20T22:59:45.907Z,100144.28
2022-08-20T23:02:25.119Z,100145.97
2022-08-20T23:04:53.876Z,100146.72
2022-08-20T23:07:23.115Z,100147.34
2022-08-20T23:09:54.618Z,100143.38
2022-08-20T23:12:23.426Z,100130.56
2022-08-20T23:14:52.803Z,100149.47
2022-08-20T23:17:23.400Z,100145.78
2022-08-20T23:19:53.072Z,100133.47
2022-08-20T23:22:21.900Z,100137.41
2022-08-20T23:24:50.942Z,100139.81
2022-08-20T23:27:22.065Z,100141.91
2022-08-20T23:29:50.810Z,100146.00
2022-08-20T23:32:19.740Z,100140.56
2022-08-20T23:34:50.117Z,100138.53
2022-08-20T23:37:19.929Z,100141.59
2022-08-20T23:39:50.119Z,100149.03
2022-08-20T23:42:19.541Z,100138.31
2022-08-20T23:44:48.327Z,100143.00
2022-08-20T23:47:21.184Z,100138.91
2022-08-20T23:49:51.908Z,100107.41
2022-08-20T23:52:20.938Z,100140.66
2022-08-20T23:54:49.812Z,100137.56
2022-08-20T23:57:21.008Z,100140.78
2022-08-20T23:59:52.886Z,100102.00
